TimePST,TemperatureF,Dew PointF,Humidity,Sea Level PressureIn,VisibilityMPH,Wind Direction,Wind SpeedMPH,Gust SpeedMPH,PrecipitationIn,Events,Conditions,WindDirDegrees,DateUTC
12:53 AM,52.0,21.9,31,29.81,10.0,SE,8.1,-,N/A,,Clear,130,2012-12-13 08:53:00
1:53 AM,50.0,23.0,35,29.81,10.0,Calm,Calm,-,N/A,,Clear,0,2012-12-13 09:53:00
2:53 AM,46.9,23.0,39,29.82,10.0,Calm,Calm,-,N/A,,Clear,0,2012-12-13 10:53:00
3:53 AM,46.9,24.1,41,29.80,10.0,Calm,Calm,-,N/A,,Clear,0,2012-12-13 11:53:00
4:53 AM,50.0,28.9,44,29.80,10.0,ENE,4.6,-,N/A,,Clear,70,2012-12-13 12:53:00
5:53 AM,48.0,25.0,41,29.81,10.0,Calm,Calm,-,N/A,,Clear,0,2012-12-13 13:53:00
6:53 AM,46.9,25.0,42,29.83,10.0,Calm,Calm,-,N/A,,Clear,0,2012-12-13 14:53:00
7:53 AM,48.9,26.1,41,29.84,10.0,ESE,6.9,-,N/A,,Clear,110,2012-12-13 15:53:00
8:53 AM,51.1,25.0,36,29.85,10.0,East,5.8,-,N/A,,Clear,80,2012-12-13 16:53:00
9:53 AM,53.1,32.0,45,29.86,10.0,SE,4.6,-,N/A,,Partly Cloudy,140,2012-12-13 17:53:00
10:53 AM,55.0,36.0,49,29.84,10.0,SE,8.1,-,N/A,,Mostly Cloudy,130,2012-12-13 18:53:00
11:53 AM,55.9,36.0,47,29.81,10.0,SSE,15.0,25.3,N/A,,Overcast,160,2012-12-13 19:53:00
12:53 PM,57.0,36.0,45,29.78,10.0,SSE,17.3,26.5,N/A,,Overcast,160,2012-12-13 20:53:00
1:53 PM,55.9,39.0,53,29.78,10.0,South,13.8,-,0.00,Rain,Light Rain,180,2012-12-13 21:53:00
2:53 PM,51.8,42.8,71,29.75,10.0,WSW,11.5,-,N/A,Rain,Light Rain,240,2012-12-13 22:53:00
4:53 PM,48.2,42.8,82,29.74,10.0,North,4.6,-,N/A,Rain,Light Rain,350,2012-12-14 00:53:00
5:53 PM,48.9,44.1,83,29.80,10.0,Calm,Calm,-,0.00,Rain,Light Rain,0,2012-12-14 01:53:00
6:53 PM,48.0,44.1,86,29.79,10.0,NNW,3.5,-,0.01,,Overcast,340,2012-12-14 02:53:00
7:53 PM,46.9,45.0,93,29.79,10.0,SE,4.6,-,0.01,Rain,Light Rain,140,2012-12-14 03:53:00
8:53 PM,46.9,45.0,93,29.78,9.0,Calm,Calm,-,0.02,Rain,Light Rain,0,2012-12-14 04:53:00
9:08 PM,46.4,44.6,93,29.73,10.0,NNE,3.5,-,0.01,Rain,Light Rain,30,2012-12-14 05:08:00
9:53 PM,46.4,44.6,93,29.72,7.0,Calm,Calm,-,N/A,Rain,Light Rain,0,2012-12-14 05:53:00
10:11 PM,46.4,44.6,93,29.71,10.0,Calm,Calm,-,N/A,Rain,Light Rain,0,2012-12-14 06:11:00
10:53 PM,46.9,45.0,93,29.74,6.0,NW,3.5,-,0.06,Rain,Light Rain,310,2012-12-14 06:53:00
11:32 PM,46.4,44.6,93,29.68,7.0,Calm,Calm,-,0.02,Rain,Light Rain,0,2012-12-14 07:32:00
11:53 PM,46.9,43.0,86,29.71,10.0,North,5.8,-,0.03,Rain,Light Rain,360,2012-12-14 07:53:00